sensor_id;sensor_type;location;lat;lon;timestamp;P1;durP1;ratioP1;P2;durP2;ratioP2
25359;SDS011;13311;51.386;0.016;2023-11-19T00:03:45;39.92;;;8.93;;
25359;SDS011;13311;51.386;0.016;2023-11-19T00:08:46;41.60;;;8.45;;
25359;SDS011;13311;51.386;0.016;2023-11-19T00:13:46;32.47;;;8.27;;
25359;SDS011;13311;51.386;0.016;2023-11-19T00:18:47;38.25;;;8.52;;
25359;SDS011;13311;51.386;0.016;2023-11-19T00:23:49;51.00;;;9.70;;
25359;SDS011;13311;51.386;0.016;2023-11-19T00:28:52;44.80;;;9.95;;
25359;SDS011;13311;51.386;0.016;2023-11-19T00:33:53;36.08;;;8.18;;
25359;SDS011;13311;51.386;0.016;2023-11-19T00:38:54;33.85;;;7.70;;
25359;SDS011;13311;51.386;0.016;2023-11-19T00:43:55;38.40;;;8.55;;
25359;SDS011;13311;51.386;0.016;2023-11-19T00:48:56;36.17;;;8.48;;
25359;SDS011;13311;51.386;0.016;2023-11-19T00:53:58;33.35;;;9.13;;
25359;SDS011;13311;51.386;0.016;2023-11-19T00:59:02;39.22;;;8.73;;
25359;SDS011;13311;51.386;0.016;2023-11-19T01:04:03;43.42;;;8.70;;
25359;SDS011;13311;51.386;0.016;2023-11-19T01:09:04;44.05;;;9.45;;
25359;SDS011;13311;51.386;0.016;2023-11-19T01:14:06;40.75;;;9.20;;
25359;SDS011;13311;51.386;0.016;2023-11-19T01:19:06;40.75;;;9.85;;
25359;SDS011;13311;51.386;0.016;2023-11-19T01:24:07;34.72;;;10.25;;
25359;SDS011;13311;51.386;0.016;2023-11-19T01:29:09;43.10;;;9.25;;
25359;SDS011;13311;51.386;0.016;2023-11-19T01:34:14;52.55;;;10.57;;
25359;SDS011;13311;51.386;0.016;2023-11-19T01:39:16;37.75;;;9.38;;
25359;SDS011;13311;51.386;0.016;2023-11-19T01:44:21;39.15;;;9.40;;
25359;SDS011;13311;51.386;0.016;2023-11-19T01:49:21;40.50;;;8.85;;
25359;SDS011;13311;51.386;0.016;2023-11-19T01:54:22;36.95;;;8.23;;
25359;SDS011;13311;51.386;0.016;2023-11-19T01:59:23;43.97;;;8.90;;
25359;SDS011;13311;51.386;0.016;2023-11-19T02:04:26;37.17;;;7.80;;
25359;SDS011;13311;51.386;0.016;2023-11-19T02:09:28;45.33;;;9.40;;
25359;SDS011;13311;51.386;0.016;2023-11-19T02:14:30;37.72;;;8.48;;
25359;SDS011;13311;51.386;0.016;2023-11-19T02:19:31;38.80;;;7.25;;
25359;SDS011;13311;51.386;0.016;2023-11-19T02:24:32;39.60;;;9.43;;
25359;SDS011;13311;51.386;0.016;2023-11-19T02:29:37;38.63;;;8.90;;
25359;SDS011;13311;51.386;0.016;2023-11-19T02:34:37;31.88;;;7.25;;
25359;SDS011;13311;51.386;0.016;2023-11-19T02:39:38;35.15;;;8.00;;
25359;SDS011;13311;51.386;0.016;2023-11-19T02:44:39;40.00;;;9.27;;
25359;SDS011;13311;51.386;0.016;2023-11-19T02:49:48;36.20;;;7.72;;
25359;SDS011;13311;51.386;0.016;2023-11-19T02:54:58;37.72;;;8.27;;
25359;SDS011;13311;51.386;0.016;2023-11-19T03:00:00;38.55;;;9.63;;
25359;SDS011;13311;51.386;0.016;2023-11-19T03:05:15;41.92;;;7.85;;
25359;SDS011;13311;51.386;0.016;2023-11-19T03:10:17;34.38;;;7.80;;
25359;SDS011;13311;51.386;0.016;2023-11-19T03:15:18;24.17;;;6.55;;
25359;SDS011;13311;51.386;0.016;2023-11-19T03:20:21;29.30;;;6.68;;
25359;SDS011;13311;51.386;0.016;2023-11-19T03:25:26;43.60;;;9.25;;
25359;SDS011;13311;51.386;0.016;2023-11-19T03:30:33;41.17;;;8.38;;
25359;SDS011;13311;51.386;0.016;2023-11-19T03:35:33;43.92;;;8.43;;
25359;SDS011;13311;51.386;0.016;2023-11-19T03:40:34;35.22;;;7.07;;
25359;SDS011;13311;51.386;0.016;2023-11-19T03:45:39;38.17;;;7.82;;
25359;SDS011;13311;51.386;0.016;2023-11-19T03:50:49;35.85;;;7.57;;
25359;SDS011;13311;51.386;0.016;2023-11-19T03:55:49;34.50;;;8.43;;
25359;SDS011;13311;51.386;0.016;2023-11-19T04:00:50;39.05;;;8.30;;
25359;SDS011;13311;51.386;0.016;2023-11-19T04:05:51;28.85;;;7.47;;
25359;SDS011;13311;51.386;0.016;2023-11-19T04:10:53;34.10;;;8.60;;
25359;SDS011;13311;51.386;0.016;2023-11-19T04:15:53;43.85;;;7.07;;
25359;SDS011;13311;51.386;0.016;2023-11-19T04:20:58;28.45;;;7.30;;
25359;SDS011;13311;51.386;0.016;2023-11-19T04:26:02;34.95;;;7.47;;
25359;SDS011;13311;51.386;0.016;2023-11-19T04:31:04;35.60;;;7.85;;
25359;SDS011;13311;51.386;0.016;2023-11-19T04:36:06;35.33;;;7.68;;
25359;SDS011;13311;51.386;0.016;2023-11-19T04:41:07;32.10;;;7.75;;
25359;SDS011;13311;51.386;0.016;2023-11-19T04:46:09;31.85;;;7.15;;
25359;SDS011;13311;51.386;0.016;2023-11-19T04:51:10;38.67;;;9.00;;
25359;SDS011;13311;51.386;0.016;2023-11-19T04:56:11;31.85;;;7.53;;
25359;SDS011;13311;51.386;0.016;2023-11-19T05:01:13;36.35;;;7.35;;
25359;SDS011;13311;51.386;0.016;2023-11-19T05:06:17;34.63;;;6.88;;
25359;SDS011;13311;51.386;0.016;2023-11-19T05:11:18;32.60;;;7.00;;
25359;SDS011;13311;51.386;0.016;2023-11-19T05:16:20;40.13;;;8.40;;
25359;SDS011;13311;51.386;0.016;2023-11-19T05:21:21;33.28;;;8.25;;
25359;SDS011;13311;51.386;0.016;2023-11-19T05:26:22;34.72;;;6.97;;
25359;SDS011;13311;51.386;0.016;2023-11-19T05:31:24;30.73;;;7.25;;
25359;SDS011;13311;51.386;0.016;2023-11-19T05:36:24;38.72;;;7.53;;
25359;SDS011;13311;51.386;0.016;2023-11-19T05:41:25;32.55;;;7.07;;
25359;SDS011;13311;51.386;0.016;2023-11-19T05:46:26;31.35;;;6.95;;
25359;SDS011;13311;51.386;0.016;2023-11-19T05:51:29;25.25;;;6.45;;
25359;SDS011;13311;51.386;0.016;2023-11-19T05:56:30;33.60;;;8.05;;
25359;SDS011;13311;51.386;0.016;2023-11-19T06:01:35;39.53;;;7.93;;
25359;SDS011;13311;51.386;0.016;2023-11-19T06:06:36;39.10;;;7.90;;
25359;SDS011;13311;51.386;0.016;2023-11-19T06:11:37;44.90;;;8.13;;
25359;SDS011;13311;51.386;0.016;2023-11-19T06:16:44;30.27;;;6.15;;
25359;SDS011;13311;51.386;0.016;2023-11-19T06:21:44;27.75;;;6.57;;
25359;SDS011;13311;51.386;0.016;2023-11-19T06:26:45;30.70;;;6.03;;
25359;SDS011;13311;51.386;0.016;2023-11-19T06:31:49;26.95;;;6.82;;
25359;SDS011;13311;51.386;0.016;2023-11-19T06:36:54;32.47;;;6.37;;
25359;SDS011;13311;51.386;0.016;2023-11-19T06:42:12;25.92;;;5.43;;
25359;SDS011;13311;51.386;0.016;2023-11-19T06:47:14;36.28;;;6.18;;
25359;SDS011;13311;51.386;0.016;2023-11-19T06:52:16;31.08;;;6.78;;
25359;SDS011;13311;51.386;0.016;2023-11-19T06:57:24;28.30;;;6.50;;
25359;SDS011;13311;51.386;0.016;2023-11-19T07:02:25;30.25;;;6.35;;
25359;SDS011;13311;51.386;0.016;2023-11-19T07:07:25;23.45;;;4.97;;
25359;SDS011;13311;51.386;0.016;2023-11-19T07:12:26;31.55;;;7.32;;
25359;SDS011;13311;51.386;0.016;2023-11-19T07:17:27;21.95;;;5.38;;
25359;SDS011;13311;51.386;0.016;2023-11-19T07:22:30;28.20;;;5.35;;
25359;SDS011;13311;51.386;0.016;2023-11-19T07:27:34;21.52;;;5.43;;
25359;SDS011;13311;51.386;0.016;2023-11-19T07:32:35;27.90;;;6.28;;
25359;SDS011;13311;51.386;0.016;2023-11-19T07:37:35;25.45;;;5.72;;
25359;SDS011;13311;51.386;0.016;2023-11-19T07:42:36;20.08;;;4.60;;
25359;SDS011;13311;51.386;0.016;2023-11-19T07:47:38;20.85;;;5.38;;
25359;SDS011;13311;51.386;0.016;2023-11-19T07:52:39;21.38;;;5.40;;
25359;SDS011;13311;51.386;0.016;2023-11-19T07:57:40;21.88;;;5.75;;
25359;SDS011;13311;51.386;0.016;2023-11-19T08:02:44;24.27;;;5.15;;
25359;SDS011;13311;51.386;0.016;2023-11-19T08:07:48;26.90;;;6.65;;
25359;SDS011;13311;51.386;0.016;2023-11-19T08:12:55;18.13;;;4.63;;
25359;SDS011;13311;51.386;0.016;2023-11-19T08:17:58;16.30;;;4.15;;
25359;SDS011;13311;51.386;0.016;2023-11-19T08:22:59;20.83;;;5.38;;
25359;SDS011;13311;51.386;0.016;2023-11-19T08:28:02;25.60;;;5.55;;
25359;SDS011;13311;51.386;0.016;2023-11-19T08:33:03;26.80;;;4.43;;
25359;SDS011;13311;51.386;0.016;2023-11-19T08:38:05;24.58;;;4.97;;
25359;SDS011;13311;51.386;0.016;2023-11-19T08:43:07;16.85;;;3.85;;
25359;SDS011;13311;51.386;0.016;2023-11-19T08:48:11;23.92;;;4.78;;
25359;SDS011;13311;51.386;0.016;2023-11-19T08:53:11;19.38;;;4.85;;
25359;SDS011;13311;51.386;0.016;2023-11-19T08:58:12;31.42;;;6.38;;
25359;SDS011;13311;51.386;0.016;2023-11-19T09:03:13;22.38;;;5.85;;
25359;SDS011;13311;51.386;0.016;2023-11-19T09:08:14;19.25;;;4.88;;
25359;SDS011;13311;51.386;0.016;2023-11-19T09:13:15;24.73;;;5.30;;
25359;SDS011;13311;51.386;0.016;2023-11-19T09:18:15;18.33;;;4.72;;
25359;SDS011;13311;51.386;0.016;2023-11-19T09:23:16;25.50;;;5.85;;
25359;SDS011;13311;51.386;0.016;2023-11-19T09:28:17;25.02;;;5.38;;
25359;SDS011;13311;51.386;0.016;2023-11-19T09:33:18;25.23;;;5.72;;
25359;SDS011;13311;51.386;0.016;2023-11-19T09:38:18;26.48;;;4.75;;
25359;SDS011;13311;51.386;0.016;2023-11-19T09:43:19;22.60;;;5.70;;
25359;SDS011;13311;51.386;0.016;2023-11-19T09:48:20;15.93;;;4.95;;
25359;SDS011;13311;51.386;0.016;2023-11-19T09:53:21;23.90;;;5.25;;
25359;SDS011;13311;51.386;0.016;2023-11-19T09:58:22;21.70;;;5.88;;
25359;SDS011;13311;51.386;0.016;2023-11-19T10:03:23;26.17;;;5.78;;
25359;SDS011;13311;51.386;0.016;2023-11-19T10:08:24;29.55;;;6.93;;
25359;SDS011;13311;51.386;0.016;2023-11-19T10:13:28;26.50;;;5.88;;
25359;SDS011;13311;51.386;0.016;2023-11-19T10:18:29;17.73;;;4.43;;
25359;SDS011;13311;51.386;0.016;2023-11-19T10:23:30;19.52;;;4.78;;
25359;SDS011;13311;51.386;0.016;2023-11-19T10:28:40;19.95;;;5.38;;
25359;SDS011;13311;51.386;0.016;2023-11-19T10:33:46;19.55;;;4.63;;
25359;SDS011;13311;51.386;0.016;2023-11-19T10:38:54;13.13;;;4.07;;
25359;SDS011;13311;51.386;0.016;2023-11-19T10:43:57;16.10;;;3.60;;
25359;SDS011;13311;51.386;0.016;2023-11-19T10:48:59;21.73;;;4.72;;
25359;SDS011;13311;51.386;0.016;2023-11-19T10:54:03;12.73;;;3.78;;
25359;SDS011;13311;51.386;0.016;2023-11-19T10:59:05;12.55;;;3.25;;
25359;SDS011;13311;51.386;0.016;2023-11-19T11:04:10;15.90;;;3.75;;
25359;SDS011;13311;51.386;0.016;2023-11-19T11:09:17;13.27;;;4.30;;
25359;SDS011;13311;51.386;0.016;2023-11-19T11:14:19;11.23;;;2.97;;
25359;SDS011;13311;51.386;0.016;2023-11-19T11:19:22;16.75;;;4.63;;
25359;SDS011;13311;51.386;0.016;2023-11-19T11:30:11;19.60;;;5.00;;
25359;SDS011;13311;51.386;0.016;2023-11-19T12:02:12;16.73;;;4.32;;
25359;SDS011;13311;51.386;0.016;2023-11-19T12:07:20;19.48;;;4.25;;
25359;SDS011;13311;51.386;0.016;2023-11-19T12:12:25;14.80;;;3.50;;
25359;SDS011;13311;51.386;0.016;2023-11-19T12:22:49;12.52;;;3.53;;
25359;SDS011;13311;51.386;0.016;2023-11-19T12:27:51;14.10;;;3.30;;
25359;SDS011;13311;51.386;0.016;2023-11-19T12:32:54;16.23;;;3.65;;
25359;SDS011;13311;51.386;0.016;2023-11-19T12:37:54;13.02;;;2.85;;
25359;SDS011;13311;51.386;0.016;2023-11-19T12:42:55;18.27;;;4.05;;
25359;SDS011;13311;51.386;0.016;2023-11-19T12:48:06;24.88;;;4.82;;
25359;SDS011;13311;51.386;0.016;2023-11-19T12:53:09;12.48;;;3.95;;
25359;SDS011;13311;51.386;0.016;2023-11-19T12:58:10;19.45;;;3.58;;
25359;SDS011;13311;51.386;0.016;2023-11-19T13:03:11;11.23;;;3.15;;
25359;SDS011;13311;51.386;0.016;2023-11-19T13:08:12;14.30;;;3.60;;
25359;SDS011;13311;51.386;0.016;2023-11-19T13:13:13;9.75;;;3.08;;
25359;SDS011;13311;51.386;0.016;2023-11-19T13:18:16;8.55;;;2.42;;
25359;SDS011;13311;51.386;0.016;2023-11-19T13:23:21;10.05;;;3.00;;
25359;SDS011;13311;51.386;0.016;2023-11-19T13:28:22;8.93;;;2.97;;
25359;SDS011;13311;51.386;0.016;2023-11-19T13:33:22;10.48;;;2.65;;
25359;SDS011;13311;51.386;0.016;2023-11-19T13:38:23;15.15;;;3.72;;
25359;SDS011;13311;51.386;0.016;2023-11-19T13:43:24;14.27;;;3.28;;
25359;SDS011;13311;51.386;0.016;2023-11-19T13:48:25;13.73;;;2.75;;
25359;SDS011;13311;51.386;0.016;2023-11-19T13:53:27;9.43;;;2.50;;
25359;SDS011;13311;51.386;0.016;2023-11-19T13:58:28;10.02;;;2.40;;
25359;SDS011;13311;51.386;0.016;2023-11-19T14:03:29;9.48;;;2.33;;
25359;SDS011;13311;51.386;0.016;2023-11-19T14:08:31;13.32;;;3.22;;
25359;SDS011;13311;51.386;0.016;2023-11-19T14:13:31;13.15;;;3.08;;
25359;SDS011;13311;51.386;0.016;2023-11-19T14:18:33;6.55;;;1.73;;
25359;SDS011;13311;51.386;0.016;2023-11-19T14:23:34;10.93;;;2.67;;
25359;SDS011;13311;51.386;0.016;2023-11-19T14:28:40;9.60;;;2.50;;
25359;SDS011;13311;51.386;0.016;2023-11-19T14:33:40;6.93;;;2.38;;
25359;SDS011;13311;51.386;0.016;2023-11-19T14:38:41;9.88;;;2.35;;
25359;SDS011;13311;51.386;0.016;2023-11-19T14:43:42;5.60;;;1.95;;
25359;SDS011;13311;51.386;0.016;2023-11-19T14:48:43;9.30;;;2.85;;
25359;SDS011;13311;51.386;0.016;2023-11-19T14:53:43;5.47;;;1.80;;
25359;SDS011;13311;51.386;0.016;2023-11-19T14:58:44;9.02;;;1.48;;
25359;SDS011;13311;51.386;0.016;2023-11-19T15:03:50;7.85;;;1.48;;
25359;SDS011;13311;51.386;0.016;2023-11-19T15:08:51;7.50;;;2.42;;
25359;SDS011;13311;51.386;0.016;2023-11-19T15:13:52;10.05;;;2.97;;
25359;SDS011;13311;51.386;0.016;2023-11-19T15:18:53;9.32;;;2.03;;
25359;SDS011;13311;51.386;0.016;2023-11-19T15:23:54;10.63;;;1.80;;
25359;SDS011;13311;51.386;0.016;2023-11-19T15:28:59;8.25;;;1.77;;
25359;SDS011;13311;51.386;0.016;2023-11-19T15:34:03;13.75;;;1.98;;
25359;SDS011;13311;51.386;0.016;2023-11-19T15:39:04;4.80;;;1.60;;
25359;SDS011;13311;51.386;0.016;2023-11-19T15:44:04;9.40;;;1.90;;
25359;SDS011;13311;51.386;0.016;2023-11-19T15:49:09;6.80;;;1.73;;
25359;SDS011;13311;51.386;0.016;2023-11-19T15:54:10;8.35;;;2.17;;
25359;SDS011;13311;51.386;0.016;2023-11-19T15:59:11;8.55;;;2.08;;
25359;SDS011;13311;51.386;0.016;2023-11-19T16:04:11;8.05;;;1.85;;
25359;SDS011;13311;51.386;0.016;2023-11-19T16:09:13;7.95;;;1.83;;
25359;SDS011;13311;51.386;0.016;2023-11-19T16:14:15;3.30;;;1.55;;
25359;SDS011;13311;51.386;0.016;2023-11-19T16:19:15;4.53;;;1.20;;
25359;SDS011;13311;51.386;0.016;2023-11-19T16:24:17;5.43;;;1.23;;
25359;SDS011;13311;51.386;0.016;2023-11-19T16:29:22;2.88;;;1.20;;
25359;SDS011;13311;51.386;0.016;2023-11-19T16:34:23;4.72;;;1.50;;
25359;SDS011;13311;51.386;0.016;2023-11-19T16:39:24;6.55;;;1.40;;
25359;SDS011;13311;51.386;0.016;2023-11-19T16:44:24;5.57;;;1.70;;
25359;SDS011;13311;51.386;0.016;2023-11-19T16:49:28;5.88;;;1.75;;
25359;SDS011;13311;51.386;0.016;2023-11-19T16:54:32;7.47;;;1.70;;
25359;SDS011;13311;51.386;0.016;2023-11-19T16:59:38;5.50;;;1.52;;
25359;SDS011;13311;51.386;0.016;2023-11-19T17:04:38;7.60;;;2.25;;
25359;SDS011;13311;51.386;0.016;2023-11-19T17:09:41;5.10;;;1.55;;
25359;SDS011;13311;51.386;0.016;2023-11-19T17:14:41;7.95;;;1.70;;
25359;SDS011;13311;51.386;0.016;2023-11-19T17:19:42;7.10;;;2.25;;
25359;SDS011;13311;51.386;0.016;2023-11-19T17:24:43;5.45;;;1.80;;
25359;SDS011;13311;51.386;0.016;2023-11-19T17:29:43;7.55;;;2.10;;
25359;SDS011;13311;51.386;0.016;2023-11-19T17:34:47;6.68;;;2.05;;
25359;SDS011;13311;51.386;0.016;2023-11-19T17:39:48;6.00;;;2.10;;
25359;SDS011;13311;51.386;0.016;2023-11-19T17:44:49;8.27;;;2.20;;
25359;SDS011;13311;51.386;0.016;2023-11-19T17:49:50;6.85;;;1.92;;
25359;SDS011;13311;51.386;0.016;2023-11-19T17:54:50;7.65;;;2.17;;
25359;SDS011;13311;51.386;0.016;2023-11-19T17:59:51;5.35;;;1.90;;
25359;SDS011;13311;51.386;0.016;2023-11-19T18:04:57;9.60;;;2.17;;
25359;SDS011;13311;51.386;0.016;2023-11-19T18:09:58;5.95;;;1.80;;
25359;SDS011;13311;51.386;0.016;2023-11-19T18:15:03;9.43;;;2.58;;
25359;SDS011;13311;51.386;0.016;2023-11-19T18:20:05;5.90;;;2.83;;
25359;SDS011;13311;51.386;0.016;2023-11-19T18:25:10;6.55;;;2.15;;
25359;SDS011;13311;51.386;0.016;2023-11-19T18:30:12;8.20;;;2.33;;
25359;SDS011;13311;51.386;0.016;2023-11-19T18:35:13;9.82;;;2.65;;
25359;SDS011;13311;51.386;0.016;2023-11-19T18:40:17;6.13;;;1.98;;
25359;SDS011;13311;51.386;0.016;2023-11-19T18:45:21;10.73;;;3.00;;
25359;SDS011;13311;51.386;0.016;2023-11-19T18:50:22;5.70;;;1.70;;
25359;SDS011;13311;51.386;0.016;2023-11-19T18:55:23;8.35;;;2.22;;
25359;SDS011;13311;51.386;0.016;2023-11-19T19:00:23;10.65;;;2.38;;
25359;SDS011;13311;51.386;0.016;2023-11-19T19:05:25;11.07;;;2.90;;
25359;SDS011;13311;51.386;0.016;2023-11-19T19:10:27;11.98;;;2.72;;
25359;SDS011;13311;51.386;0.016;2023-11-19T19:15:28;11.27;;;2.85;;
25359;SDS011;13311;51.386;0.016;2023-11-19T19:20:28;8.77;;;2.78;;
25359;SDS011;13311;51.386;0.016;2023-11-19T19:25:29;12.90;;;3.00;;
25359;SDS011;13311;51.386;0.016;2023-11-19T19:30:30;17.40;;;3.22;;
25359;SDS011;13311;51.386;0.016;2023-11-19T19:35:30;11.05;;;2.67;;
25359;SDS011;13311;51.386;0.016;2023-11-19T19:40:31;15.30;;;3.35;;
25359;SDS011;13311;51.386;0.016;2023-11-19T19:45:32;15.57;;;3.35;;
25359;SDS011;13311;51.386;0.016;2023-11-19T19:50:38;8.57;;;2.78;;
25359;SDS011;13311;51.386;0.016;2023-11-19T19:55:39;10.98;;;2.38;;
25359;SDS011;13311;51.386;0.016;2023-11-19T20:00:46;10.73;;;2.78;;
25359;SDS011;13311;51.386;0.016;2023-11-19T20:05:50;10.68;;;2.50;;
25359;SDS011;13311;51.386;0.016;2023-11-19T20:10:51;12.60;;;3.25;;
25359;SDS011;13311;51.386;0.016;2023-11-19T20:15:51;12.25;;;2.97;;
25359;SDS011;13311;51.386;0.016;2023-11-19T20:20:53;11.77;;;3.00;;
25359;SDS011;13311;51.386;0.016;2023-11-19T20:25:54;10.65;;;2.72;;
25359;SDS011;13311;51.386;0.016;2023-11-19T20:30:54;15.18;;;3.33;;
25359;SDS011;13311;51.386;0.016;2023-11-19T20:35:55;14.10;;;3.55;;
25359;SDS011;13311;51.386;0.016;2023-11-19T20:40:57;9.98;;;3.20;;
25359;SDS011;13311;51.386;0.016;2023-11-19T20:45:59;12.48;;;3.40;;
25359;SDS011;13311;51.386;0.016;2023-11-19T20:51:00;14.55;;;3.78;;
25359;SDS011;13311;51.386;0.016;2023-11-19T20:56:00;14.52;;;3.10;;
25359;SDS011;13311;51.386;0.016;2023-11-19T21:01:03;11.98;;;2.95;;
25359;SDS011;13311;51.386;0.016;2023-11-19T21:06:04;11.30;;;2.88;;
25359;SDS011;13311;51.386;0.016;2023-11-19T21:11:08;10.82;;;2.40;;
25359;SDS011;13311;51.386;0.016;2023-11-19T21:16:12;12.40;;;3.40;;
25359;SDS011;13311;51.386;0.016;2023-11-19T21:21:12;16.92;;;3.85;;
25359;SDS011;13311;51.386;0.016;2023-11-19T21:26:14;19.00;;;3.75;;
25359;SDS011;13311;51.386;0.016;2023-11-19T21:31:15;14.90;;;2.80;;
25359;SDS011;13311;51.386;0.016;2023-11-19T21:36:17;15.38;;;3.47;;
25359;SDS011;13311;51.386;0.016;2023-11-19T21:41:18;15.65;;;3.55;;
25359;SDS011;13311;51.386;0.016;2023-11-19T21:46:18;13.65;;;2.97;;
25359;SDS011;13311;51.386;0.016;2023-11-19T21:51:20;7.00;;;2.53;;
25359;SDS011;13311;51.386;0.016;2023-11-19T21:56:21;15.23;;;3.47;;
25359;SDS011;13311;51.386;0.016;2023-11-19T22:01:22;10.70;;;2.80;;
25359;SDS011;13311;51.386;0.016;2023-11-19T22:06:23;9.75;;;2.17;;
25359;SDS011;13311;51.386;0.016;2023-11-19T22:11:24;15.73;;;3.08;;
25359;SDS011;13311;51.386;0.016;2023-11-19T22:16:26;11.07;;;2.40;;
25359;SDS011;13311;51.386;0.016;2023-11-19T22:21:27;15.68;;;2.80;;
25359;SDS011;13311;51.386;0.016;2023-11-19T22:26:27;11.05;;;2.70;;
25359;SDS011;13311;51.386;0.016;2023-11-19T22:31:32;12.18;;;2.97;;
25359;SDS011;13311;51.386;0.016;2023-11-19T22:36:36;11.23;;;2.83;;
25359;SDS011;13311;51.386;0.016;2023-11-19T22:41:37;14.90;;;3.45;;
25359;SDS011;13311;51.386;0.016;2023-11-19T22:46:40;8.57;;;2.65;;
25359;SDS011;13311;51.386;0.016;2023-11-19T22:51:40;14.55;;;3.40;;
25359;SDS011;13311;51.386;0.016;2023-11-19T22:56:41;10.73;;;2.55;;
25359;SDS011;13311;51.386;0.016;2023-11-19T23:01:46;12.43;;;3.42;;
25359;SDS011;13311;51.386;0.016;2023-11-19T23:06:49;13.63;;;3.45;;
25359;SDS011;13311;51.386;0.016;2023-11-19T23:11:50;16.23;;;3.10;;
25359;SDS011;13311;51.386;0.016;2023-11-19T23:16:51;16.63;;;3.80;;
25359;SDS011;13311;51.386;0.016;2023-11-19T23:21:52;14.30;;;4.25;;
25359;SDS011;13311;51.386;0.016;2023-11-19T23:26:53;22.38;;;3.83;;
25359;SDS011;13311;51.386;0.016;2023-11-19T23:31:56;17.50;;;4.63;;
25359;SDS011;13311;51.386;0.016;2023-11-19T23:36:57;14.15;;;3.33;;
25359;SDS011;13311;51.386;0.016;2023-11-19T23:41:57;20.30;;;4.32;;
25359;SDS011;13311;51.386;0.016;2023-11-19T23:46:59;18.05;;;3.80;;
25359;SDS011;13311;51.386;0.016;2023-11-19T23:52:00;22.65;;;4.63;;
25359;SDS011;13311;51.386;0.016;2023-11-19T23:57:04;22.40;;;4.82;;
